sensor_id;sensor_type;location;lat;lon;timestamp;temperature;humidity
37050;DHT22;22958;51.232;6.826;2023-05-09T00:02:24;15.90;99.90
37050;DHT22;22958;51.232;6.826;2023-05-09T00:04:50;15.90;99.90
37050;DHT22;22958;51.232;6.826;2023-05-09T00:07:16;15.90;99.90
37050;DHT22;22958;51.232;6.826;2023-05-09T00:09:41;15.90;99.90
37050;DHT22;22958;51.232;6.826;2023-05-09T00:12:07;15.80;99.90
37050;DHT22;22958;51.232;6.826;2023-05-09T00:14:33;15.80;99.90
37050;DHT22;22958;51.232;6.826;2023-05-09T00:16:59;15.90;99.90
37050;DHT22;22958;51.232;6.826;2023-05-09T00:19:25;15.80;99.90
37050;DHT22;22958;51.232;6.826;2023-05-09T00:21:50;15.70;99.90
37050;DHT22;22958;51.232;6.826;2023-05-09T00:24:16;15.70;99.90
37050;DHT22;22958;51.232;6.826;2023-05-09T00:26:41;15.70;99.90
37050;DHT22;22958;51.232;6.826;2023-05-09T00:29:07;15.70;99.90
37050;DHT22;22958;51.232;6.826;2023-05-09T00:31:32;15.70;99.90
37050;DHT22;22958;51.232;6.826;2023-05-09T00:33:58;15.70;99.90
37050;DHT22;22958;51.232;6.826;2023-05-09T00:36:23;15.70;99.90
37050;DHT22;22958;51.232;6.826;2023-05-09T00:38:49;15.70;99.90
37050;DHT22;22958;51.232;6.826;2023-05-09T00:41:15;15.60;99.90
37050;DHT22;22958;51.232;6.826;2023-05-09T00:43:40;15.70;99.90
37050;DHT22;22958;51.232;6.826;2023-05-09T00:46:06;15.60;99.90
37050;DHT22;22958;51.232;6.826;2023-05-09T00:48:31;15.60;99.90
37050;DHT22;22958;51.232;6.826;2023-05-09T00:50:57;15.60;99.90
37050;DHT22;22958;51.232;6.826;2023-05-09T00:53:23;15.60;99.90
37050;DHT22;22958;51.232;6.826;2023-05-09T00:55:49;15.60;99.90
37050;DHT22;22958;51.232;6.826;2023-05-09T00:58:15;15.60;99.90
37050;DHT22;22958;51.232;6.826;2023-05-09T01:00:41;15.70;99.90
37050;DHT22;22958;51.232;6.826;2023-05-09T01:03:07;15.60;99.90
37050;DHT22;22958;51.232;6.826;2023-05-09T01:05:47;15.60;99.90
37050;DHT22;22958;51.232;6.826;2023-05-09T01:08:28;15.60;99.90
37050;DHT22;22958;51.232;6.826;2023-05-09T01:11:02;15.60;99.90
37050;DHT22;22958;51.232;6.826;2023-05-09T01:13:43;15.60;99.90
37050;DHT22;22958;51.232;6.826;2023-05-09T01:16:29;15.70;99.90
37050;DHT22;22958;51.232;6.826;2023-05-09T01:24:24;15.70;99.90
37050;DHT22;22958;51.232;6.826;2023-05-09T01:29:43;15.80;99.90
37050;DHT22;22958;51.232;6.826;2023-05-09T01:32:17;15.70;99.90
37050;DHT22;22958;51.232;6.826;2023-05-09T01:34:44;15.80;99.90
37050;DHT22;22958;51.232;6.826;2023-05-09T01:37:14;15.80;99.90
37050;DHT22;22958;51.232;6.826;2023-05-09T01:39:45;15.80;99.90
37050;DHT22;22958;51.232;6.826;2023-05-09T01:42:12;15.90;99.90
37050;DHT22;22958;51.232;6.826;2023-05-09T01:44:40;15.90;99.90
37050;DHT22;22958;51.232;6.826;2023-05-09T01:47:07;15.80;99.90
37050;DHT22;22958;51.232;6.826;2023-05-09T01:49:35;15.90;99.90
37050;DHT22;22958;51.232;6.826;2023-05-09T01:52:10;15.90;99.90
37050;DHT22;22958;51.232;6.826;2023-05-09T01:54:37;15.90;99.90
37050;DHT22;22958;51.232;6.826;2023-05-09T01:57:03;15.90;99.90
37050;DHT22;22958;51.232;6.826;2023-05-09T01:59:32;15.90;99.90
37050;DHT22;22958;51.232;6.826;2023-05-09T02:01:58;15.80;99.90
37050;DHT22;22958;51.232;6.826;2023-05-09T02:04:24;15.90;99.90
37050;DHT22;22958;51.232;6.826;2023-05-09T02:06:50;15.90;99.90
37050;DHT22;22958;51.232;6.826;2023-05-09T02:09:17;15.90;99.90
37050;DHT22;22958;51.232;6.826;2023-05-09T02:11:43;15.90;99.90
37050;DHT22;22958;51.232;6.826;2023-05-09T02:14:09;15.90;99.90
37050;DHT22;22958;51.232;6.826;2023-05-09T02:16:35;15.90;99.90
37050;DHT22;22958;51.232;6.826;2023-05-09T02:19:01;16.00;99.90
37050;DHT22;22958;51.232;6.826;2023-05-09T02:21:27;16.00;99.90
37050;DHT22;22958;51.232;6.826;2023-05-09T02:23:52;16.00;99.90
37050;DHT22;22958;51.232;6.826;2023-05-09T02:26:18;15.90;99.90
37050;DHT22;22958;51.232;6.826;2023-05-09T02:28:44;16.00;99.90
37050;DHT22;22958;51.232;6.826;2023-05-09T02:31:12;16.00;99.90
37050;DHT22;22958;51.232;6.826;2023-05-09T02:33:39;15.90;99.90
37050;DHT22;22958;51.232;6.826;2023-05-09T02:36:06;16.00;99.90
37050;DHT22;22958;51.232;6.826;2023-05-09T02:38:33;15.90;99.90
37050;DHT22;22958;51.232;6.826;2023-05-09T02:40:58;16.00;99.90
37050;DHT22;22958;51.232;6.826;2023-05-09T02:43:24;15.90;99.90
37050;DHT22;22958;51.232;6.826;2023-05-09T02:45:50;15.90;99.90
37050;DHT22;22958;51.232;6.826;2023-05-09T02:48:15;15.90;99.90
37050;DHT22;22958;51.232;6.826;2023-05-09T02:50:41;15.90;99.90
37050;DHT22;22958;51.232;6.826;2023-05-09T02:53:07;15.90;99.90
37050;DHT22;22958;51.232;6.826;2023-05-09T02:55:33;15.90;99.90
37050;DHT22;22958;51.232;6.826;2023-05-09T02:57:59;15.90;99.90
37050;DHT22;22958;51.232;6.826;2023-05-09T03:00:25;15.90;99.90
37050;DHT22;22958;51.232;6.826;2023-05-09T03:02:51;16.00;99.90
37050;DHT22;22958;51.232;6.826;2023-05-09T03:05:16;16.00;99.90
37050;DHT22;22958;51.232;6.826;2023-05-09T03:07:42;15.90;99.90
37050;DHT22;22958;51.232;6.826;2023-05-09T03:10:09;15.90;99.90
37050;DHT22;22958;51.232;6.826;2023-05-09T03:12:36;15.90;99.90
37050;DHT22;22958;51.232;6.826;2023-05-09T03:15:06;16.00;99.90
37050;DHT22;22958;51.232;6.826;2023-05-09T03:17:31;15.90;99.90
37050;DHT22;22958;51.232;6.826;2023-05-09T03:19:57;15.90;99.90
37050;DHT22;22958;51.232;6.826;2023-05-09T03:22:22;15.90;99.90
37050;DHT22;22958;51.232;6.826;2023-05-09T03:24:48;15.90;99.90
37050;DHT22;22958;51.232;6.826;2023-05-09T03:27:13;15.90;99.90
37050;DHT22;22958;51.232;6.826;2023-05-09T03:29:39;15.90;99.90
37050;DHT22;22958;51.232;6.826;2023-05-09T03:32:05;15.90;99.90
37050;DHT22;22958;51.232;6.826;2023-05-09T03:34:30;15.90;99.90
37050;DHT22;22958;51.232;6.826;2023-05-09T03:36:56;15.90;99.90
37050;DHT22;22958;51.232;6.826;2023-05-09T03:39:21;15.90;99.90
37050;DHT22;22958;51.232;6.826;2023-05-09T03:41:47;15.90;99.90
37050;DHT22;22958;51.232;6.826;2023-05-09T03:44:13;15.90;99.90
37050;DHT22;22958;51.232;6.826;2023-05-09T03:46:38;15.80;99.90
37050;DHT22;22958;51.232;6.826;2023-05-09T03:49:04;15.80;99.90
37050;DHT22;22958;51.232;6.826;2023-05-09T03:51:30;15.80;99.90
37050;DHT22;22958;51.232;6.826;2023-05-09T03:53:56;15.80;99.90
37050;DHT22;22958;51.232;6.826;2023-05-09T03:56:22;15.80;99.90
37050;DHT22;22958;51.232;6.826;2023-05-09T03:58:47;15.90;99.90
37050;DHT22;22958;51.232;6.826;2023-05-09T04:01:13;15.90;99.90
37050;DHT22;22958;51.232;6.826;2023-05-09T04:03:39;15.90;99.90
37050;DHT22;22958;51.232;6.826;2023-05-09T04:06:05;15.90;99.90
37050;DHT22;22958;51.232;6.826;2023-05-09T04:08:31;15.90;99.90
37050;DHT22;22958;51.232;6.826;2023-05-09T04:10:57;15.90;99.90
37050;DHT22;22958;51.232;6.826;2023-05-09T04:13:22;15.90;99.90
37050;DHT22;22958;51.232;6.826;2023-05-09T04:15:48;15.90;99.90
37050;DHT22;22958;51.232;6.826;2023-05-09T04:18:14;15.90;99.90
37050;DHT22;22958;51.232;6.826;2023-05-09T04:20:39;15.80;99.90
37050;DHT22;22958;51.232;6.826;2023-05-09T04:23:05;15.80;99.90
37050;DHT22;22958;51.232;6.826;2023-05-09T04:25:30;15.90;99.90
37050;DHT22;22958;51.232;6.826;2023-05-09T04:27:56;15.80;99.90
37050;DHT22;22958;51.232;6.826;2023-05-09T04:30:22;15.80;99.90
37050;DHT22;22958;51.232;6.826;2023-05-09T04:32:51;15.80;99.90
37050;DHT22;22958;51.232;6.826;2023-05-09T04:35:17;15.80;99.90
37050;DHT22;22958;51.232;6.826;2023-05-09T04:37:43;15.80;99.90
37050;DHT22;22958;51.232;6.826;2023-05-09T04:40:09;15.80;99.90
37050;DHT22;22958;51.232;6.826;2023-05-09T04:42:35;15.80;99.90
37050;DHT22;22958;51.232;6.826;2023-05-09T04:45:01;15.80;99.90
37050;DHT22;22958;51.232;6.826;2023-05-09T04:47:27;15.80;99.90
37050;DHT22;22958;51.232;6.826;2023-05-09T04:49:52;15.70;99.90
37050;DHT22;22958;51.232;6.826;2023-05-09T04:52:18;15.80;99.90
37050;DHT22;22958;51.232;6.826;2023-05-09T04:54:44;15.80;99.90
37050;DHT22;22958;51.232;6.826;2023-05-09T04:57:09;15.70;99.90
37050;DHT22;22958;51.232;6.826;2023-05-09T04:59:35;15.70;99.90
37050;DHT22;22958;51.232;6.826;2023-05-09T05:02:01;15.70;99.90
37050;DHT22;22958;51.232;6.826;2023-05-09T05:04:27;15.70;99.90
37050;DHT22;22958;51.232;6.826;2023-05-09T05:06:52;15.80;99.90
37050;DHT22;22958;51.232;6.826;2023-05-09T05:09:18;15.80;99.90
37050;DHT22;22958;51.232;6.826;2023-05-09T05:11:44;15.90;99.90
37050;DHT22;22958;51.232;6.826;2023-05-09T05:14:09;15.90;99.90
37050;DHT22;22958;51.232;6.826;2023-05-09T05:16:35;15.90;99.90
37050;DHT22;22958;51.232;6.826;2023-05-09T05:19:00;16.00;99.90
37050;DHT22;22958;51.232;6.826;2023-05-09T05:21:26;16.10;99.90
37050;DHT22;22958;51.232;6.826;2023-05-09T05:23:51;16.10;99.90
37050;DHT22;22958;51.232;6.826;2023-05-09T05:26:17;16.10;99.90
37050;DHT22;22958;51.232;6.826;2023-05-09T05:28:42;16.20;99.90
37050;DHT22;22958;51.232;6.826;2023-05-09T05:31:08;16.10;99.90
37050;DHT22;22958;51.232;6.826;2023-05-09T05:33:33;16.10;99.90
37050;DHT22;22958;51.232;6.826;2023-05-09T05:35:59;16.20;99.90
37050;DHT22;22958;51.232;6.826;2023-05-09T05:38:24;16.10;99.90
37050;DHT22;22958;51.232;6.826;2023-05-09T05:40:50;16.20;99.90
37050;DHT22;22958;51.232;6.826;2023-05-09T05:43:15;16.20;99.90
37050;DHT22;22958;51.232;6.826;2023-05-09T05:45:41;16.20;99.90
37050;DHT22;22958;51.232;6.826;2023-05-09T05:48:07;16.30;99.90
37050;DHT22;22958;51.232;6.826;2023-05-09T05:50:32;16.40;99.90
37050;DHT22;22958;51.232;6.826;2023-05-09T05:52:58;16.40;99.90
37050;DHT22;22958;51.232;6.826;2023-05-09T05:55:23;16.60;99.90
37050;DHT22;22958;51.232;6.826;2023-05-09T05:57:49;16.70;99.90
37050;DHT22;22958;51.232;6.826;2023-05-09T06:00:15;16.70;99.90
37050;DHT22;22958;51.232;6.826;2023-05-09T06:02:41;16.70;99.90
37050;DHT22;22958;51.232;6.826;2023-05-09T06:05:10;16.90;99.90
37050;DHT22;22958;51.232;6.826;2023-05-09T06:07:36;17.40;99.90
37050;DHT22;22958;51.232;6.826;2023-05-09T06:10:02;17.20;99.90
37050;DHT22;22958;51.232;6.826;2023-05-09T06:12:28;17.30;99.90
37050;DHT22;22958;51.232;6.826;2023-05-09T06:14:54;17.20;99.90
37050;DHT22;22958;51.232;6.826;2023-05-09T06:17:19;17.00;99.90
37050;DHT22;22958;51.232;6.826;2023-05-09T06:19:45;16.90;99.90
37050;DHT22;22958;51.232;6.826;2023-05-09T06:22:11;17.00;99.90
37050;DHT22;22958;51.232;6.826;2023-05-09T06:24:36;17.10;99.90
37050;DHT22;22958;51.232;6.826;2023-05-09T06:27:02;17.30;99.90
37050;DHT22;22958;51.232;6.826;2023-05-09T06:29:28;17.20;99.90
37050;DHT22;22958;51.232;6.826;2023-05-09T06:31:53;17.50;99.90
37050;DHT22;22958;51.232;6.826;2023-05-09T06:34:19;17.60;99.90
37050;DHT22;22958;51.232;6.826;2023-05-09T06:36:44;17.50;99.90
37050;DHT22;22958;51.232;6.826;2023-05-09T06:39:10;17.50;99.90
37050;DHT22;22958;51.232;6.826;2023-05-09T06:41:35;17.50;99.90
37050;DHT22;22958;51.232;6.826;2023-05-09T06:44:01;17.50;99.90
37050;DHT22;22958;51.232;6.826;2023-05-09T06:46:27;17.40;99.90
37050;DHT22;22958;51.232;6.826;2023-05-09T06:48:53;17.30;99.90
37050;DHT22;22958;51.232;6.826;2023-05-09T06:51:18;17.30;99.90
37050;DHT22;22958;51.232;6.826;2023-05-09T06:53:44;17.30;99.90
37050;DHT22;22958;51.232;6.826;2023-05-09T06:56:09;17.30;99.90
37050;DHT22;22958;51.232;6.826;2023-05-09T06:58:35;17.30;99.90
37050;DHT22;22958;51.232;6.826;2023-05-09T07:01:01;17.50;99.90
37050;DHT22;22958;51.232;6.826;2023-05-09T07:03:26;17.50;99.90
37050;DHT22;22958;51.232;6.826;2023-05-09T07:05:52;17.60;99.90
37050;DHT22;22958;51.232;6.826;2023-05-09T07:08:19;17.70;99.90
37050;DHT22;22958;51.232;6.826;2023-05-09T07:10:44;17.70;99.90
37050;DHT22;22958;51.232;6.826;2023-05-09T07:13:10;17.80;99.90
37050;DHT22;22958;51.232;6.826;2023-05-09T07:15:35;17.80;99.90
37050;DHT22;22958;51.232;6.826;2023-05-09T07:18:01;17.70;99.90
37050;DHT22;22958;51.232;6.826;2023-05-09T07:20:26;17.70;99.90
37050;DHT22;22958;51.232;6.826;2023-05-09T07:22:52;17.90;99.90
37050;DHT22;22958;51.232;6.826;2023-05-09T07:25:17;17.80;99.90
37050;DHT22;22958;51.232;6.826;2023-05-09T07:27:43;17.70;99.90
37050;DHT22;22958;51.232;6.826;2023-05-09T07:30:09;17.80;99.90
37050;DHT22;22958;51.232;6.826;2023-05-09T07:32:34;17.90;99.90
37050;DHT22;22958;51.232;6.826;2023-05-09T07:35:00;17.90;99.90
37050;DHT22;22958;51.232;6.826;2023-05-09T07:37:27;18.00;99.90
37050;DHT22;22958;51.232;6.826;2023-05-09T07:39:52;18.00;99.90
37050;DHT22;22958;51.232;6.826;2023-05-09T07:42:18;18.00;99.90
37050;DHT22;22958;51.232;6.826;2023-05-09T07:44:43;18.00;99.90
37050;DHT22;22958;51.232;6.826;2023-05-09T07:47:09;18.00;99.90
37050;DHT22;22958;51.232;6.826;2023-05-09T07:49:35;17.90;99.90
37050;DHT22;22958;51.232;6.826;2023-05-09T07:52:01;18.00;99.90
37050;DHT22;22958;51.232;6.826;2023-05-09T07:54:27;18.00;99.90
37050;DHT22;22958;51.232;6.826;2023-05-09T07:56:52;18.10;99.90
37050;DHT22;22958;51.232;6.826;2023-05-09T07:59:19;18.30;99.90
37050;DHT22;22958;51.232;6.826;2023-05-09T08:01:44;18.60;99.90
37050;DHT22;22958;51.232;6.826;2023-05-09T08:04:10;18.60;99.90
37050;DHT22;22958;51.232;6.826;2023-05-09T08:06:36;18.70;99.90
37050;DHT22;22958;51.232;6.826;2023-05-09T08:09:01;18.70;99.90
37050;DHT22;22958;51.232;6.826;2023-05-09T08:11:27;19.00;99.90
37050;DHT22;22958;51.232;6.826;2023-05-09T08:13:53;19.30;99.90
37050;DHT22;22958;51.232;6.826;2023-05-09T08:16:18;19.40;99.90
37050;DHT22;22958;51.232;6.826;2023-05-09T08:18:44;19.60;99.90
37050;DHT22;22958;51.232;6.826;2023-05-09T08:21:10;19.70;99.90
37050;DHT22;22958;51.232;6.826;2023-05-09T08:23:35;19.70;99.90
37050;DHT22;22958;51.232;6.826;2023-05-09T08:26:01;19.80;99.90
37050;DHT22;22958;51.232;6.826;2023-05-09T08:28:27;19.60;99.90
37050;DHT22;22958;51.232;6.826;2023-05-09T08:30:55;19.50;99.90
37050;DHT22;22958;51.232;6.826;2023-05-09T08:33:22;19.70;99.90
37050;DHT22;22958;51.232;6.826;2023-05-09T08:35:52;19.90;99.90
37050;DHT22;22958;51.232;6.826;2023-05-09T08:38:18;19.80;99.90
37050;DHT22;22958;51.232;6.826;2023-05-09T08:40:44;19.80;99.90
37050;DHT22;22958;51.232;6.826;2023-05-09T08:43:11;19.80;99.90
37050;DHT22;22958;51.232;6.826;2023-05-09T08:45:50;19.60;99.90
37050;DHT22;22958;51.232;6.826;2023-05-09T08:48:17;19.70;99.90
37050;DHT22;22958;51.232;6.826;2023-05-09T08:50:43;19.70;99.90
37050;DHT22;22958;51.232;6.826;2023-05-09T08:53:10;19.80;99.90
37050;DHT22;22958;51.232;6.826;2023-05-09T08:55:36;19.80;99.90
37050;DHT22;22958;51.232;6.826;2023-05-09T08:58:02;19.90;99.90
37050;DHT22;22958;51.232;6.826;2023-05-09T09:00:28;19.90;99.90
37050;DHT22;22958;51.232;6.826;2023-05-09T09:02:59;20.00;99.90
37050;DHT22;22958;51.232;6.826;2023-05-09T09:05:25;20.10;99.90
37050;DHT22;22958;51.232;6.826;2023-05-09T09:07:51;20.40;99.90
37050;DHT22;22958;51.232;6.826;2023-05-09T09:10:17;20.40;99.90
37050;DHT22;22958;51.232;6.826;2023-05-09T09:12:47;20.30;99.90
37050;DHT22;22958;51.232;6.826;2023-05-09T09:15:15;20.50;99.90
37050;DHT22;22958;51.232;6.826;2023-05-09T09:17:42;20.80;99.90
37050;DHT22;22958;51.232;6.826;2023-05-09T09:20:13;21.20;99.90
37050;DHT22;22958;51.232;6.826;2023-05-09T09:22:42;21.00;99.90
37050;DHT22;22958;51.232;6.826;2023-05-09T09:25:07;20.90;99.90
37050;DHT22;22958;51.232;6.826;2023-05-09T09:27:33;21.10;99.90
37050;DHT22;22958;51.232;6.826;2023-05-09T09:30:06;21.10;99.90
37050;DHT22;22958;51.232;6.826;2023-05-09T09:32:32;21.00;99.90
37050;DHT22;22958;51.232;6.826;2023-05-09T09:35:05;20.90;99.90
37050;DHT22;22958;51.232;6.826;2023-05-09T09:37:34;21.10;99.90
37050;DHT22;22958;51.232;6.826;2023-05-09T09:40:00;21.20;99.90
37050;DHT22;22958;51.232;6.826;2023-05-09T09:42:25;21.00;99.90
37050;DHT22;22958;51.232;6.826;2023-05-09T09:45:09;21.00;99.90
37050;DHT22;22958;51.232;6.826;2023-05-09T09:47:34;21.00;99.90
37050;DHT22;22958;51.232;6.826;2023-05-09T09:50:12;21.20;99.90
37050;DHT22;22958;51.232;6.826;2023-05-09T09:55:14;21.00;99.90
37050;DHT22;22958;51.232;6.826;2023-05-09T09:57:40;21.00;99.90
37050;DHT22;22958;51.232;6.826;2023-05-09T10:00:10;21.00;99.90
37050;DHT22;22958;51.232;6.826;2023-05-09T10:02:45;20.90;99.90
37050;DHT22;22958;51.232;6.826;2023-05-09T10:05:20;21.10;99.90
37050;DHT22;22958;51.232;6.826;2023-05-09T10:07:50;21.00;99.90
37050;DHT22;22958;51.232;6.826;2023-05-09T10:10:17;21.10;99.90
37050;DHT22;22958;51.232;6.826;2023-05-09T10:12:43;21.30;99.90
37050;DHT22;22958;51.232;6.826;2023-05-09T10:15:09;21.30;99.90
37050;DHT22;22958;51.232;6.826;2023-05-09T10:17:36;21.30;99.90
37050;DHT22;22958;51.232;6.826;2023-05-09T10:20:04;21.50;99.90
37050;DHT22;22958;51.232;6.826;2023-05-09T10:22:32;21.50;99.90
37050;DHT22;22958;51.232;6.826;2023-05-09T10:25:09;21.30;99.90
37050;DHT22;22958;51.232;6.826;2023-05-09T10:27:40;21.20;99.90
37050;DHT22;22958;51.232;6.826;2023-05-09T10:30:27;21.10;99.90
37050;DHT22;22958;51.232;6.826;2023-05-09T10:33:02;21.30;99.90
37050;DHT22;22958;51.232;6.826;2023-05-09T10:35:38;21.30;99.90
37050;DHT22;22958;51.232;6.826;2023-05-09T10:38:06;21.20;99.90
37050;DHT22;22958;51.232;6.826;2023-05-09T10:40:33;21.20;99.90
37050;DHT22;22958;51.232;6.826;2023-05-09T10:42:58;21.30;99.90
37050;DHT22;22958;51.232;6.826;2023-05-09T10:45:24;21.40;99.90
37050;DHT22;22958;51.232;6.826;2023-05-09T10:47:51;21.40;99.90
37050;DHT22;22958;51.232;6.826;2023-05-09T10:50:18;21.40;99.90
37050;DHT22;22958;51.232;6.826;2023-05-09T10:53:04;21.30;99.90
37050;DHT22;22958;51.232;6.826;2023-05-09T10:58:17;21.40;99.90
37050;DHT22;22958;51.232;6.826;2023-05-09T11:00:45;21.20;99.90
37050;DHT22;22958;51.232;6.826;2023-05-09T11:03:11;21.30;99.90
37050;DHT22;22958;51.232;6.826;2023-05-09T11:05:40;21.40;99.90
37050;DHT22;22958;51.232;6.826;2023-05-09T11:08:26;21.50;99.90
37050;DHT22;22958;51.232;6.826;2023-05-09T11:10:53;21.90;99.90
37050;DHT22;22958;51.232;6.826;2023-05-09T11:13:39;22.10;99.90
37050;DHT22;22958;51.232;6.826;2023-05-09T11:16:10;22.30;99.90
37050;DHT22;22958;51.232;6.826;2023-05-09T11:18:49;22.40;99.90
37050;DHT22;22958;51.232;6.826;2023-05-09T11:21:15;22.40;99.90
37050;DHT22;22958;51.232;6.826;2023-05-09T11:23:41;22.60;99.90
37050;DHT22;22958;51.232;6.826;2023-05-09T11:26:07;23.20;99.90
37050;DHT22;22958;51.232;6.826;2023-05-09T11:28:35;24.50;99.90
37050;DHT22;22958;51.232;6.826;2023-05-09T11:31:13;24.80;99.90
37050;DHT22;22958;51.232;6.826;2023-05-09T11:33:41;24.00;99.90
37050;DHT22;22958;51.232;6.826;2023-05-09T11:36:29;23.60;99.90
37050;DHT22;22958;51.232;6.826;2023-05-09T11:39:09;23.30;99.90
37050;DHT22;22958;51.232;6.826;2023-05-09T11:41:43;23.30;99.90
37050;DHT22;22958;51.232;6.826;2023-05-09T11:44:14;23.20;99.90
37050;DHT22;22958;51.232;6.826;2023-05-09T11:46:39;22.90;99.90
37050;DHT22;22958;51.232;6.826;2023-05-09T11:49:06;22.40;99.90
37050;DHT22;22958;51.232;6.826;2023-05-09T11:51:35;22.40;99.90
37050;DHT22;22958;51.232;6.826;2023-05-09T11:54:01;22.70;99.90
37050;DHT22;22958;51.232;6.826;2023-05-09T11:56:29;23.20;99.90
37050;DHT22;22958;51.232;6.826;2023-05-09T11:58:55;23.40;99.90
37050;DHT22;22958;51.232;6.826;2023-05-09T12:01:21;23.10;99.90
37050;DHT22;22958;51.232;6.826;2023-05-09T12:03:47;22.80;99.90
37050;DHT22;22958;51.232;6.826;2023-05-09T12:06:17;23.00;99.90
37050;DHT22;22958;51.232;6.826;2023-05-09T12:08:44;22.70;99.90
37050;DHT22;22958;51.232;6.826;2023-05-09T12:11:11;22.40;99.90
37050;DHT22;22958;51.232;6.826;2023-05-09T12:13:47;22.00;99.90
37050;DHT22;22958;51.232;6.826;2023-05-09T12:16:14;21.80;99.90
37050;DHT22;22958;51.232;6.826;2023-05-09T12:18:51;21.70;99.90
37050;DHT22;22958;51.232;6.826;2023-05-09T12:21:17;21.60;99.90
37050;DHT22;22958;51.232;6.826;2023-05-09T12:23:44;21.50;99.90
37050;DHT22;22958;51.232;6.826;2023-05-09T12:26:10;21.60;99.90
37050;DHT22;22958;51.232;6.826;2023-05-09T12:28:36;21.90;99.90
37050;DHT22;22958;51.232;6.826;2023-05-09T12:31:04;22.00;99.90
37050;DHT22;22958;51.232;6.826;2023-05-09T12:33:30;22.20;99.90
37050;DHT22;22958;51.232;6.826;2023-05-09T12:38:29;23.10;99.90
37050;DHT22;22958;51.232;6.826;2023-05-09T12:41:09;23.20;99.90
37050;DHT22;22958;51.232;6.826;2023-05-09T12:43:36;22.90;99.90
37050;DHT22;22958;51.232;6.826;2023-05-09T12:46:03;23.20;99.90
37050;DHT22;22958;51.232;6.826;2023-05-09T12:48:34;22.90;99.90
37050;DHT22;22958;51.232;6.826;2023-05-09T12:51:05;22.50;99.90
37050;DHT22;22958;51.232;6.826;2023-05-09T12:53:38;22.40;99.90
37050;DHT22;22958;51.232;6.826;2023-05-09T12:56:16;22.20;99.90
37050;DHT22;22958;51.232;6.826;2023-05-09T13:01:15;22.00;99.90
37050;DHT22;22958;51.232;6.826;2023-05-09T13:03:40;22.10;99.90
37050;DHT22;22958;51.232;6.826;2023-05-09T13:06:11;22.00;99.90
37050;DHT22;22958;51.232;6.826;2023-05-09T13:08:37;22.10;99.90
37050;DHT22;22958;51.232;6.826;2023-05-09T13:11:03;21.90;99.90
37050;DHT22;22958;51.232;6.826;2023-05-09T13:13:29;21.90;99.90
37050;DHT22;22958;51.232;6.826;2023-05-09T13:15:55;21.90;99.90
37050;DHT22;22958;51.232;6.826;2023-05-09T13:18:22;22.00;99.90
37050;DHT22;22958;51.232;6.826;2023-05-09T13:20:51;21.40;99.90
37050;DHT22;22958;51.232;6.826;2023-05-09T13:23:17;20.60;99.90
37050;DHT22;22958;51.232;6.826;2023-05-09T13:25:43;20.20;99.90
37050;DHT22;22958;51.232;6.826;2023-05-09T13:28:08;19.70;99.90
37050;DHT22;22958;51.232;6.826;2023-05-09T13:30:34;19.40;99.90
37050;DHT22;22958;51.232;6.826;2023-05-09T13:33:00;19.00;99.90
37050;DHT22;22958;51.232;6.826;2023-05-09T13:35:25;18.90;99.90
37050;DHT22;22958;51.232;6.826;2023-05-09T13:37:51;19.10;99.90
37050;DHT22;22958;51.232;6.826;2023-05-09T13:40:17;19.20;99.90
37050;DHT22;22958;51.232;6.826;2023-05-09T13:42:42;19.20;99.90
37050;DHT22;22958;51.232;6.826;2023-05-09T13:45:09;18.90;99.90
37050;DHT22;22958;51.232;6.826;2023-05-09T13:47:34;18.80;99.90
37050;DHT22;22958;51.232;6.826;2023-05-09T13:50:01;18.70;99.90
37050;DHT22;22958;51.232;6.826;2023-05-09T13:52:26;18.70;99.90
37050;DHT22;22958;51.232;6.826;2023-05-09T13:54:52;18.40;99.90
37050;DHT22;22958;51.232;6.826;2023-05-09T13:57:18;18.50;99.90
37050;DHT22;22958;51.232;6.826;2023-05-09T13:59:43;18.30;99.90
37050;DHT22;22958;51.232;6.826;2023-05-09T14:02:09;18.30;99.90
37050;DHT22;22958;51.232;6.826;2023-05-09T14:04:35;18.60;99.90
37050;DHT22;22958;51.232;6.826;2023-05-09T14:07:01;18.20;99.90
37050;DHT22;22958;51.232;6.826;2023-05-09T14:09:27;18.10;99.90
37050;DHT22;22958;51.232;6.826;2023-05-09T14:11:53;18.40;99.90
37050;DHT22;22958;51.232;6.826;2023-05-09T14:14:20;18.60;99.90
37050;DHT22;22958;51.232;6.826;2023-05-09T14:16:47;18.70;99.90
37050;DHT22;22958;51.232;6.826;2023-05-09T14:19:12;18.30;99.90
37050;DHT22;22958;51.232;6.826;2023-05-09T14:21:42;18.50;99.90
37050;DHT22;22958;51.232;6.826;2023-05-09T14:24:09;18.40;99.90
37050;DHT22;22958;51.232;6.826;2023-05-09T14:26:35;18.40;99.90
37050;DHT22;22958;51.232;6.826;2023-05-09T14:29:02;18.60;99.90
37050;DHT22;22958;51.232;6.826;2023-05-09T14:31:28;18.60;99.90
37050;DHT22;22958;51.232;6.826;2023-05-09T14:33:54;18.30;99.90
37050;DHT22;22958;51.232;6.826;2023-05-09T14:36:20;18.40;99.90
37050;DHT22;22958;51.232;6.826;2023-05-09T14:38:46;18.30;99.90
37050;DHT22;22958;51.232;6.826;2023-05-09T14:41:13;18.00;99.90
37050;DHT22;22958;51.232;6.826;2023-05-09T14:43:39;17.80;99.90
37050;DHT22;22958;51.232;6.826;2023-05-09T14:46:05;17.50;99.90
37050;DHT22;22958;51.232;6.826;2023-05-09T14:48:31;17.20;99.90
37050;DHT22;22958;51.232;6.826;2023-05-09T14:50:56;16.90;99.90
37050;DHT22;22958;51.232;6.826;2023-05-09T14:53:22;16.90;99.90
37050;DHT22;22958;51.232;6.826;2023-05-09T14:55:51;16.60;99.90
37050;DHT22;22958;51.232;6.826;2023-05-09T14:58:17;16.40;99.90
37050;DHT22;22958;51.232;6.826;2023-05-09T15:00:44;16.30;99.90
37050;DHT22;22958;51.232;6.826;2023-05-09T15:03:10;16.20;99.90
37050;DHT22;22958;51.232;6.826;2023-05-09T15:05:36;16.30;99.90
37050;DHT22;22958;51.232;6.826;2023-05-09T15:08:02;16.30;99.90
37050;DHT22;22958;51.232;6.826;2023-05-09T15:10:28;16.30;99.90
37050;DHT22;22958;51.232;6.826;2023-05-09T15:12:53;16.20;99.90
37050;DHT22;22958;51.232;6.826;2023-05-09T15:15:21;16.30;99.90
37050;DHT22;22958;51.232;6.826;2023-05-09T15:17:47;16.20;99.90
37050;DHT22;22958;51.232;6.826;2023-05-09T15:20:14;16.10;99.90
37050;DHT22;22958;51.232;6.826;2023-05-09T15:22:40;16.20;99.90
37050;DHT22;22958;51.232;6.826;2023-05-09T15:25:06;16.30;99.90
37050;DHT22;22958;51.232;6.826;2023-05-09T15:27:32;16.20;99.90
37050;DHT22;22958;51.232;6.826;2023-05-09T15:29:57;16.10;99.90
37050;DHT22;22958;51.232;6.826;2023-05-09T15:32:23;16.20;99.90
37050;DHT22;22958;51.232;6.826;2023-05-09T15:34:49;16.20;99.90
37050;DHT22;22958;51.232;6.826;2023-05-09T15:37:14;16.20;99.90
37050;DHT22;22958;51.232;6.826;2023-05-09T15:39:40;16.20;99.90
37050;DHT22;22958;51.232;6.826;2023-05-09T15:42:11;16.30;99.90
37050;DHT22;22958;51.232;6.826;2023-05-09T15:44:38;16.30;99.90
37050;DHT22;22958;51.232;6.826;2023-05-09T15:47:04;16.30;99.90
37050;DHT22;22958;51.232;6.826;2023-05-09T15:49:29;16.40;99.90